Time;durP1;ratioP1;P1;durP2;ratioP2;P2;SDS_P1;SDS_P2;PMS_P1;PMS_P2;Temp;Humidity;BMP_temperature;BMP_pressure;BME280_temperature;BME280_humidity;BME280_pressure;Samples;Min_cycle;Max_cycle;Signal;HPM_P1;HPM_P2
2022/05/17 00:00:30;;;;;;;0.43;0.43;;;22.40;66.70;;;;;;4209060;28;20121;-66
2022/05/17 00:02:52;;;;;;;0.00;0.00;;;22.40;66.70;;;;;;4225247;28;20040;-66
2022/05/17 00:05:14;;;;;;;0.00;0.00;;;22.40;66.80;;;;;;4226056;28;20047;-65
2022/05/17 00:07:39;;;;;;;0.00;0.00;;;22.40;66.80;;;;;;4225086;28;20051;-66
2022/05/17 00:10:00;;;;;;;0.00;0.00;;;22.40;66.90;;;;;;4225928;28;20044;-66
2022/05/17 00:12:23;;;;;;;0.00;0.00;;;22.40;66.90;;;;;;4210962;28;20055;-66
2022/05/17 00:14:45;;;;;;;0.10;0.10;;;22.30;67.70;;;;;;4209141;28;20055;-66
2022/05/17 00:17:09;;;;;;;0.10;0.10;;;22.40;66.90;;;;;;4208970;28;20467;-66
2022/05/17 00:19:31;;;;;;;0.28;0.28;;;22.40;66.90;;;;;;4213488;28;20408;-66
2022/05/17 00:21:54;;;;;;;0.00;0.00;;;22.40;67.10;;;;;;4224211;28;20085;-66
2022/05/17 00:24:19;;;;;;;0.00;0.00;;;22.40;67.10;;;;;;4208759;28;20048;-66
2022/05/17 00:26:42;;;;;;;0.00;0.00;;;22.30;67.00;;;;;;4208978;28;20056;-66
2022/05/17 00:29:05;;;;;;;0.10;0.10;;;22.30;67.10;;;;;;4206910;28;20046;-66
2022/05/17 00:31:27;;;;;;;0.00;0.00;;;22.30;67.10;;;;;;4208491;28;20051;-66
2022/05/17 00:33:49;;;;;;;0.30;0.30;;;22.30;67.10;;;;;;4208185;28;20074;-67
2022/05/17 00:36:15;;;;;;;0.00;0.00;;;22.30;67.20;;;;;;4224774;28;20059;-67
2022/05/17 00:38:37;;;;;;;0.00;0.00;;;22.30;68.10;;;;;;4223510;28;20048;-66
2022/05/17 00:41:01;;;;;;;0.13;0.13;;;22.30;67.20;;;;;;4224797;28;20208;-67
2022/05/17 00:44:42;;;;;;;1.35;1.17;;;22.30;67.20;;;;;;4224713;28;20043;-66
2022/05/17 00:46:13;;;;;;;0.00;0.00;;;22.30;67.20;;;;;;4224736;28;20047;-65
2022/05/17 00:48:34;;;;;;;0.00;0.00;;;22.30;67.30;;;;;;4225305;28;20062;-65
2022/05/17 00:50:57;;;;;;;0.63;0.63;;;22.30;67.20;;;;;;4209385;28;20478;-66
2022/05/17 00:53:23;;;;;;;0.00;0.00;;;22.30;67.20;;;;;;4211869;28;20485;-66
2022/05/17 00:55:49;;;;;;;0.30;0.30;;;22.30;67.20;;;;;;4225388;28;20055;-64
2022/05/17 00:58:15;;;;;;;0.00;0.00;;;22.30;67.10;;;;;;4224735;28;20134;-66
2022/05/17 01:00:41;;;;;;;0.00;0.00;;;22.30;67.10;;;;;;4212403;28;20127;-66
2022/05/17 01:03:07;;;;;;;0.20;0.20;;;22.30;67.10;;;;;;4208416;28;20044;-66
2022/05/17 01:05:35;;;;;;;0.00;0.00;;;22.30;67.10;;;;;;4208102;28;20052;-66
2022/05/17 01:07:59;;;;;;;0.08;0.08;;;22.30;67.10;;;;;;4206561;28;20067;-66
2022/05/17 01:10:23;;;;;;;0.00;0.00;;;22.30;67.20;;;;;;4217616;28;20127;-66
2022/05/17 01:14:57;;;;;;;0.20;0.20;;;22.20;67.10;;;;;;4224948;28;20059;-66
2022/05/17 01:15:27;;;;;;;0.28;0.28;;;22.20;67.10;;;;;;4224695;28;20050;-66
2022/05/17 01:17:49;;;;;;;0.40;0.40;;;22.20;67.10;;;;;;4225211;28;20387;-66
2022/05/17 01:20:14;;;;;;;0.03;0.03;;;22.20;67.10;;;;;;4219703;27;20044;-66
2022/05/17 01:22:38;;;;;;;0.08;0.08;;;22.20;67.10;;;;;;4211053;28;20052;-66
2022/05/17 01:25:00;;;;;;;0.35;0.35;;;22.20;67.10;;;;;;4211342;28;20515;-67
2022/05/17 01:27:27;;;;;;;0.00;0.00;;;22.20;67.10;;;;;;4211559;28;20075;-67
2022/05/17 01:29:50;;;;;;;0.93;0.55;;;22.20;67.10;;;;;;4218186;28;20055;-67
2022/05/17 01:32:15;;;;;;;0.52;0.52;;;22.20;67.10;;;;;;4228380;27;20067;-67
2022/05/17 01:34:38;;;;;;;0.03;0.03;;;22.20;67.10;;;;;;4228013;27;20078;-67
2022/05/17 01:37:00;;;;;;;0.00;0.00;;;22.20;67.00;;;;;;4228014;27;20043;-67
2022/05/17 01:39:23;;;;;;;0.00;0.00;;;22.20;67.10;;;;;;4226611;28;20057;-66
2022/05/17 01:41:45;;;;;;;0.00;0.00;;;22.20;67.10;;;;;;4228228;27;20047;-66
2022/05/17 01:44:07;;;;;;;0.30;0.30;;;22.20;67.10;;;;;;4228128;28;20047;-66
2022/05/17 01:46:29;;;;;;;0.00;0.00;;;22.20;67.10;;;;;;4228125;27;20067;-66
2022/05/17 01:48:51;;;;;;;0.00;0.00;;;22.20;67.20;;;;;;4213615;28;20136;-66
2022/05/17 01:51:14;;;;;;;2.53;2.05;;;22.20;67.10;;;;;;4211209;28;20048;-65
2022/05/17 01:53:36;;;;;;;0.40;0.38;;;22.20;67.20;;;;;;4209221;28;20051;-66
2022/05/17 01:55:59;;;;;;;0.30;0.30;;;22.20;67.20;;;;;;4209578;28;20098;-65
2022/05/17 01:58:22;;;;;;;0.00;0.00;;;22.10;67.20;;;;;;4219004;27;20073;-65
2022/05/17 02:00:45;;;;;;;0.00;0.00;;;22.20;67.30;;;;;;4228003;27;20142;-65
2022/05/17 02:03:07;;;;;;;0.00;0.00;;;22.10;67.20;;;;;;4227294;27;20047;-65
2022/05/17 02:05:29;;;;;;;0.00;0.00;;;22.10;67.20;;;;;;4227613;27;20104;-65
2022/05/17 02:07:52;;;;;;;0.00;0.00;;;22.10;67.20;;;;;;4223124;27;20121;-65
2022/05/17 02:10:15;;;;;;;0.00;0.00;;;22.10;67.20;;;;;;4210958;28;20447;-65
2022/05/17 02:12:38;;;;;;;0.32;0.32;;;22.10;67.20;;;;;;4210606;28;20135;-65
2022/05/17 02:15:00;;;;;;;1.55;1.45;;;22.10;67.20;;;;;;4210538;28;20375;-65
2022/05/17 02:17:22;;;;;;;0.75;0.63;;;22.10;67.20;;;;;;4211042;28;20530;-65
2022/05/17 02:19:44;;;;;;;0.00;0.00;;;22.10;67.20;;;;;;4226098;28;20048;-65
2022/05/17 02:22:07;;;;;;;0.00;0.00;;;22.10;67.20;;;;;;4222515;28;20250;-65
2022/05/17 02:24:29;;;;;;;0.00;0.00;;;22.10;68.10;;;;;;4209975;28;20056;-66
2022/05/17 02:26:51;;;;;;;1.45;1.08;;;22.10;67.20;;;;;;4210681;28;20079;-66
2022/05/17 02:29:16;;;;;;;0.88;0.88;;;22.10;67.20;;;;;;4178309;28;20056;-66
2022/05/17 02:31:38;;;;;;;0.98;0.98;;;22.10;67.30;;;;;;4203319;28;20063;-66
2022/05/17 02:34:01;;;;;;;0.00;0.00;;;22.10;67.30;;;;;;4210665;28;20587;-66
2022/05/17 02:36:23;;;;;;;0.00;0.00;;;22.10;67.30;;;;;;4210329;28;20048;-66
2022/05/17 02:38:46;;;;;;;0.10;0.10;;;22.10;67.40;;;;;;4226114;27;20460;-65
2022/05/17 02:41:08;;;;;;;0.00;0.00;;;22.10;67.30;;;;;;4227035;28;20043;-66
2022/05/17 02:43:30;;;;;;;0.00;0.00;;;22.00;67.30;;;;;;4225907;28;20085;-66
2022/05/17 02:45:57;;;;;;;0.00;0.00;;;22.10;67.40;;;;;;4226731;27;20058;-66
2022/05/17 02:48:20;;;;;;;0.00;0.00;;;22.10;67.40;;;;;;4216344;27;20059;-66
2022/05/17 02:50:42;;;;;;;0.10;0.10;;;22.00;67.30;;;;;;4210054;28;20051;-66
2022/05/17 02:53:04;;;;;;;0.00;0.00;;;22.00;67.30;;;;;;4210000;28;20055;-66
2022/05/17 02:55:26;;;;;;;0.00;0.00;;;22.00;67.30;;;;;;4210120;28;20089;-66
2022/05/17 02:57:48;;;;;;;0.00;0.00;;;22.00;67.30;;;;;;4219467;28;20098;-66
2022/05/17 03:00:14;;;;;;;0.00;0.00;;;22.00;67.40;;;;;;4226445;27;20039;-66
2022/05/17 03:02:37;;;;;;;0.00;0.00;;;22.00;67.40;;;;;;4227057;27;20127;-66
2022/05/17 03:05:00;;;;;;;0.43;0.43;;;22.00;67.40;;;;;;4226859;27;20047;-66
2022/05/17 03:07:22;;;;;;;0.10;0.10;;;22.00;67.40;;;;;;4220706;27;20039;-66
2022/05/17 03:09:44;;;;;;;0.00;0.00;;;22.00;67.40;;;;;;4209972;28;20532;-66
2022/05/17 03:12:07;;;;;;;0.15;0.15;;;21.90;67.40;;;;;;4210164;28;20082;-66
2022/05/17 03:14:30;;;;;;;0.00;0.00;;;22.00;67.50;;;;;;4209115;28;20048;-66
2022/05/17 03:16:52;;;;;;;0.00;0.00;;;22.00;67.50;;;;;;4213361;28;20051;-67
2022/05/17 03:19:15;;;;;;;0.00;0.00;;;21.90;67.40;;;;;;4224835;28;20101;-66
2022/05/17 03:21:37;;;;;;;0.00;0.00;;;22.00;67.50;;;;;;4226289;27;20486;-66
2022/05/17 03:23:59;;;;;;;0.00;0.00;;;22.00;67.50;;;;;;4208011;28;20176;-66
2022/05/17 03:26:21;;;;;;;0.00;0.00;;;21.90;67.30;;;;;;4209922;28;20048;-67
2022/05/17 03:28:43;;;;;;;0.00;0.00;;;21.90;67.40;;;;;;4192673;28;20154;-67
2022/05/17 03:31:08;;;;;;;0.00;0.00;;;21.90;67.40;;;;;;4192990;28;20052;-67
2022/05/17 03:33:30;;;;;;;0.00;0.00;;;21.90;67.50;;;;;;4192876;28;20131;-67
2022/05/17 03:35:54;;;;;;;0.00;0.00;;;21.90;67.50;;;;;;4192470;28;20048;-67
2022/05/17 03:38:16;;;;;;;0.00;0.00;;;21.90;68.40;;;;;;4223571;28;20043;-67
2022/05/17 03:40:39;;;;;;;0.00;0.00;;;21.90;67.50;;;;;;4226252;27;20130;-67
2022/05/17 03:43:01;;;;;;;0.13;0.10;;;21.90;67.50;;;;;;4224684;28;20039;-65
2022/05/17 03:45:24;;;;;;;0.00;0.00;;;21.90;67.50;;;;;;4225202;28;20055;-66
2022/05/17 03:47:46;;;;;;;0.20;0.20;;;21.90;67.50;;;;;;4215216;28;20044;-65
2022/05/17 03:50:09;;;;;;;0.20;0.20;;;21.90;67.50;;;;;;4209313;28;20555;-65
2022/05/17 03:52:34;;;;;;;0.00;0.00;;;21.90;67.60;;;;;;4209127;28;20121;-65
2022/05/17 03:54:56;;;;;;;0.00;0.00;;;21.90;67.60;;;;;;4207992;28;20051;-66
2022/05/17 03:57:18;;;;;;;0.00;0.00;;;21.90;67.60;;;;;;4215821;27;20486;-65
2022/05/17 03:59:41;;;;;;;0.00;0.00;;;21.90;67.60;;;;;;4224725;27;20051;-65
2022/05/17 04:02:03;;;;;;;0.00;0.00;;;21.80;67.50;;;;;;4226054;28;20048;-65
2022/05/17 04:04:27;;;;;;;0.00;0.00;;;21.90;67.70;;;;;;4226260;27;20051;-64
2022/05/17 04:06:49;;;;;;;0.88;0.85;;;21.80;67.70;;;;;;4223104;28;20581;-64
2022/05/17 04:09:13;;;;;;;0.00;0.00;;;21.80;67.70;;;;;;4208912;28;20131;-64
2022/05/17 04:11:35;;;;;;;0.00;0.00;;;21.80;67.60;;;;;;4209395;28;20137;-64
2022/05/17 04:13:57;;;;;;;1.25;0.85;;;21.80;68.40;;;;;;4208770;28;20054;-64
2022/05/17 04:16:20;;;;;;;0.00;0.00;;;21.90;67.60;;;;;;4213686;28;20051;-64
2022/05/17 04:18:42;;;;;;;0.13;0.13;;;21.80;67.50;;;;;;4225880;28;20053;-64
2022/05/17 04:21:05;;;;;;;0.80;0.65;;;21.80;67.50;;;;;;4225622;28;20398;-65
2022/05/17 04:23:29;;;;;;;0.00;0.00;;;21.80;67.50;;;;;;4209226;28;20052;-65
2022/05/17 04:25:52;;;;;;;0.00;0.00;;;21.90;67.40;;;;;;4209261;28;20051;-64
2022/05/17 04:28:15;;;;;;;0.00;0.00;;;21.90;67.30;;;;;;4208631;28;20060;-65
2022/05/17 04:30:38;;;;;;;0.00;0.00;;;21.90;67.30;;;;;;4225365;28;20088;-65
2022/05/17 04:33:01;;;;;;;0.00;0.00;;;21.90;67.40;;;;;;4225906;28;20451;-66
2022/05/17 04:35:23;;;;;;;0.00;0.00;;;21.90;67.50;;;;;;4225271;28;20108;-65
2022/05/17 04:37:46;;;;;;;0.00;0.00;;;21.90;67.40;;;;;;4208633;28;20126;-65
2022/05/17 04:40:11;;;;;;;0.00;0.00;;;21.90;67.50;;;;;;4208788;28;20050;-65
2022/05/17 04:42:35;;;;;;;7.03;1.38;;;21.90;67.50;;;;;;4208740;28;20094;-65
2022/05/17 04:44:57;;;;;;;0.00;0.00;;;21.90;67.60;;;;;;4208703;28;20491;-65
2022/05/17 04:47:20;;;;;;;0.40;0.40;;;21.90;67.60;;;;;;4222173;28;20050;-64
2022/05/17 04:49:42;;;;;;;0.47;0.43;;;21.90;67.60;;;;;;4223812;28;20081;-65
2022/05/17 04:52:05;;;;;;;0.00;0.00;;;21.90;67.70;;;;;;4222681;28;20080;-65
2022/05/17 04:54:27;;;;;;;0.00;0.00;;;21.90;67.80;;;;;;4209127;28;20047;-65
2022/05/17 04:56:49;;;;;;;0.35;0.35;;;21.90;68.00;;;;;;4211977;28;20047;-65
2022/05/17 04:59:19;;;;;;;0.00;0.00;;;21.90;68.00;;;;;;4211514;28;20548;-65
2022/05/17 05:01:42;;;;;;;0.00;0.00;;;21.90;68.10;;;;;;4212084;28;20538;-65
2022/05/17 05:04:05;;;;;;;0.25;0.25;;;21.90;68.10;;;;;;4212092;28;20044;-65
2022/05/17 05:06:28;;;;;;;0.00;0.00;;;21.90;68.10;;;;;;4218917;28;20051;-65
2022/05/17 05:08:51;;;;;;;0.00;0.00;;;21.90;67.90;;;;;;4228902;27;20137;-65
2022/05/17 05:11:13;;;;;;;0.00;0.00;;;21.90;67.90;;;;;;4228258;27;20125;-65
2022/05/17 05:13:35;;;;;;;0.10;0.10;;;21.90;67.80;;;;;;4228374;27;20805;-65
2022/05/17 05:15:59;;;;;;;0.00;0.00;;;22.00;67.90;;;;;;4212101;28;20131;-65
2022/05/17 05:18:22;;;;;;;0.95;0.95;;;22.00;67.90;;;;;;4211317;28;20047;-65
2022/05/17 05:20:44;;;;;;;0.45;0.45;;;21.90;67.90;;;;;;4211351;28;20662;-65
2022/05/17 05:23:07;;;;;;;0.00;0.00;;;22.00;68.10;;;;;;4211383;28;20036;-65
2022/05/17 05:25:29;;;;;;;2.55;0.57;;;22.00;67.90;;;;;;4222440;27;20509;-65
2022/05/17 05:27:51;;;;;;;0.00;0.00;;;22.00;67.80;;;;;;4228641;27;20055;-65
2022/05/17 05:30:15;;;;;;;0.40;0.40;;;22.00;67.70;;;;;;4228171;27;20070;-65
2022/05/17 05:32:39;;;;;;;0.00;0.00;;;22.00;67.70;;;;;;4227017;28;20109;-65
2022/05/17 05:35:02;;;;;;;0.00;0.00;;;22.10;67.60;;;;;;4226396;27;20043;-65
2022/05/17 05:37:24;;;;;;;0.00;0.00;;;22.10;67.50;;;;;;4228594;27;20471;-65
2022/05/17 05:39:49;;;;;;;0.13;0.13;;;22.10;67.50;;;;;;4226968;27;20117;-65
2022/05/17 05:42:11;;;;;;;2.17;1.65;;;22.10;67.50;;;;;;4227937;27;20157;-64
2022/05/17 05:44:33;;;;;;;0.00;0.00;;;22.00;67.40;;;;;;4226419;27;20112;-64
2022/05/17 05:46:58;;;;;;;0.32;0.32;;;22.00;67.80;;;;;;4228340;27;20047;-68
2022/05/17 05:49:21;;;;;;;0.10;0.10;;;22.10;68.10;;;;;;4227925;28;20579;-65
2022/05/17 05:51:45;;;;;;;0.00;0.00;;;22.10;69.00;;;;;;4225873;28;20047;-66
2022/05/17 05:54:07;;;;;;;2.30;0.73;;;22.00;67.90;;;;;;4211413;28;20090;-66
2022/05/17 05:56:29;;;;;;;0.00;0.00;;;22.00;67.80;;;;;;4210937;28;20039;-66
2022/05/17 05:58:51;;;;;;;0.90;0.90;;;22.00;67.80;;;;;;4211041;28;20040;-67
2022/05/17 06:01:13;;;;;;;18.50;0.70;;;22.10;67.70;;;;;;4209595;28;20078;-67
2022/05/17 06:03:36;;;;;;;0.00;0.00;;;22.10;67.70;;;;;;4214613;27;20478;-66
2022/05/17 06:06:00;;;;;;;0.00;0.00;;;22.10;67.60;;;;;;4236099;27;20096;-66
2022/05/17 06:08:23;;;;;;;0.00;0.00;;;22.10;67.40;;;;;;4226354;27;20089;-66
2022/05/17 06:10:45;;;;;;;0.10;0.10;;;22.10;67.40;;;;;;4217694;28;20078;-64
2022/05/17 06:13:07;;;;;;;0.22;0.10;;;22.10;67.20;;;;;;4211042;28;20139;-65
2022/05/17 06:15:29;;;;;;;0.00;0.00;;;22.10;67.10;;;;;;4210792;28;20445;-64
2022/05/17 06:17:52;;;;;;;0.40;0.40;;;22.10;67.00;;;;;;4210792;28;20113;-64
2022/05/17 06:20:16;;;;;;;2.53;0.68;;;22.10;66.90;;;;;;4210973;28;20054;-64
2022/05/17 06:22:40;;;;;;;0.00;0.00;;;22.10;66.90;;;;;;4210272;28;20054;-64
2022/05/17 06:25:02;;;;;;;0.13;0.13;;;22.10;66.80;;;;;;4210499;28;20573;-65
2022/05/17 06:27:24;;;;;;;0.00;0.00;;;22.10;66.80;;;;;;4210583;28;20525;-65
2022/05/17 06:29:47;;;;;;;0.00;0.00;;;22.10;66.80;;;;;;4211934;27;20094;-65
2022/05/17 06:32:10;;;;;;;1.08;0.85;;;22.10;66.80;;;;;;4193375;28;20484;-65
2022/05/17 06:34:32;;;;;;;0.10;0.10;;;22.10;66.70;;;;;;4194324;28;20049;-64
2022/05/17 06:36:55;;;;;;;0.10;0.10;;;22.10;66.60;;;;;;4201035;28;20230;-64
2022/05/17 06:39:18;;;;;;;0.43;0.43;;;22.10;66.60;;;;;;4200204;28;20045;-64
2022/05/17 06:41:43;;;;;;;1.38;0.93;;;22.10;66.50;;;;;;4197395;28;20132;-64
2022/05/17 06:44:06;;;;;;;0.00;0.00;;;22.20;66.50;;;;;;4191635;28;20059;-64
2022/05/17 06:46:29;;;;;;;2.55;2.17;;;22.20;66.40;;;;;;4191821;28;20712;-65
2022/05/17 06:48:51;;;;;;;0.00;0.00;;;22.30;66.30;;;;;;4191224;28;20037;-65
2022/05/17 06:51:13;;;;;;;0.08;0.08;;;22.30;66.00;;;;;;4194028;28;20044;-64
2022/05/17 06:53:36;;;;;;;0.00;0.00;;;22.30;65.80;;;;;;4193248;28;20056;-64
2022/05/17 06:56:00;;;;;;;0.57;0.57;;;22.40;65.60;;;;;;4190789;28;20060;-64
2022/05/17 06:58:22;;;;;;;0.10;0.10;;;22.50;65.30;;;;;;4206565;28;20361;-65
2022/05/17 07:00:44;;;;;;;0.52;0.52;;;22.50;65.20;;;;;;4195104;28;20132;-65
2022/05/17 07:03:06;;;;;;;0.00;0.00;;;22.60;64.80;;;;;;4191163;28;20048;-65
2022/05/17 07:05:29;;;;;;;1.15;1.08;;;22.60;64.60;;;;;;4197103;28;20416;-65
2022/05/17 07:07:52;;;;;;;0.00;0.00;;;22.70;64.40;;;;;;4206164;28;20097;-64
2022/05/17 07:13:12;;;;;;;0.13;0.13;;;22.70;64.10;;;;;;4205659;28;20071;-64
2022/05/17 07:15:34;;;;;;;0.13;0.13;;;22.80;63.90;;;;;;4201261;28;20059;-65
2022/05/17 07:17:59;;;;;;;0.00;0.00;;;22.80;63.70;;;;;;4190710;28;20044;-64
2022/05/17 07:20:21;;;;;;;0.00;0.00;;;22.90;63.50;;;;;;4206861;28;20052;-65
2022/05/17 07:22:43;;;;;;;0.28;0.28;;;22.90;63.30;;;;;;4198750;28;20040;-65
2022/05/17 07:25:06;;;;;;;0.00;0.00;;;22.90;63.20;;;;;;4190162;28;20053;-64
2022/05/17 07:27:28;;;;;;;0.00;0.00;;;22.90;63.10;;;;;;4191632;28;20525;-64
2022/05/17 07:29:52;;;;;;;0.60;0.20;;;22.90;63.10;;;;;;4190653;28;20725;-64
2022/05/17 07:32:14;;;;;;;0.00;0.00;;;22.90;63.90;;;;;;4191080;28;24936;-64
2022/05/17 07:34:36;;;;;;;0.00;0.00;;;22.90;62.90;;;;;;4199369;28;20067;-64
2022/05/17 07:36:58;;;;;;;0.00;0.00;;;22.90;63.00;;;;;;4191098;28;20476;-64
2022/05/17 07:39:20;;;;;;;6.25;1.70;;;22.90;63.00;;;;;;4190665;28;20063;-64
2022/05/17 07:41:43;;;;;;;0.00;0.00;;;22.90;62.90;;;;;;4202837;28;20049;-64
2022/05/17 07:44:05;;;;;;;0.00;0.00;;;23.00;62.90;;;;;;4189105;28;20044;-64
2022/05/17 07:46:29;;;;;;;0.20;0.20;;;23.00;62.90;;;;;;4198465;28;20072;-64
2022/05/17 07:48:51;;;;;;;1.88;1.77;;;23.00;62.90;;;;;;4190351;28;20044;-63
2022/05/17 07:51:13;;;;;;;0.00;0.00;;;23.00;62.90;;;;;;4192938;28;20139;-64
2022/05/17 07:53:36;;;;;;;1.20;0.85;;;23.00;62.90;;;;;;4195551;28;20058;-61
2022/05/17 07:55:57;;;;;;;0.00;0.00;;;23.10;62.80;;;;;;4194842;28;20047;-66
2022/05/17 07:58:20;;;;;;;0.00;0.00;;;23.10;63.10;;;;;;4200586;28;20064;-65
2022/05/17 08:00:44;;;;;;;0.00;0.00;;;23.10;63.00;;;;;;4201256;28;20047;-66
2022/05/17 08:03:08;;;;;;;0.00;0.00;;;23.10;62.70;;;;;;4190244;28;20792;-66
2022/05/17 08:05:31;;;;;;;0.00;0.00;;;23.10;62.50;;;;;;4190279;28;20048;-69
2022/05/17 08:07:54;;;;;;;0.00;0.00;;;23.10;62.50;;;;;;4191066;28;20063;-68
2022/05/17 08:10:16;;;;;;;0.00;0.00;;;23.10;62.50;;;;;;4202868;28;20044;-68
2022/05/17 08:12:38;;;;;;;0.00;0.00;;;23.10;62.50;;;;;;4202091;28;20414;-68
2022/05/17 08:15:00;;;;;;;0.32;0.32;;;23.10;62.40;;;;;;4202614;28;20048;-68
2022/05/17 08:17:23;;;;;;;0.00;0.00;;;23.10;62.30;;;;;;4198724;28;20458;-68
2022/05/17 08:19:47;;;;;;;0.22;0.22;;;23.20;62.40;;;;;;4204116;28;20495;-69
2022/05/17 08:22:13;;;;;;;0.00;0.00;;;23.20;63.20;;;;;;4190497;28;20063;-68
2022/05/17 08:29:52;;;;;;;0.00;0.00;;;23.30;62.20;;;;;;4192279;28;20045;-69
2022/05/17 08:34:55;;;;;;;0.03;0.03;;;23.30;62.10;;;;;;4203680;28;20052;-69
2022/05/17 08:37:18;;;;;;;0.35;0.35;;;23.30;62.10;;;;;;4205914;28;20052;-70
2022/05/17 08:39:41;;;;;;;1.15;1.15;;;23.30;62.10;;;;;;4216907;28;20064;-69
2022/05/17 08:42:13;;;;;;;0.00;0.00;;;23.20;62.10;;;;;;4202299;28;20568;-67
2022/05/17 08:44:44;;;;;;;0.00;0.00;;;23.30;62.10;;;;;;4193359;28;20040;-69
2022/05/17 08:47:11;;;;;;;0.00;0.00;;;23.30;62.00;;;;;;4191760;28;20553;-69
2022/05/17 08:49:59;;;;;;;0.43;0.43;;;23.30;61.90;;;;;;4198661;28;20056;-69
2022/05/17 08:52:24;;;;;;;0.00;0.00;;;23.40;61.80;;;;;;4190408;28;20070;-69
2022/05/17 08:54:52;;;;;;;0.00;0.00;;;23.40;61.80;;;;;;4190139;28;20048;-69
2022/05/17 08:57:24;;;;;;;0.00;0.00;;;23.40;61.60;;;;;;4199646;28;20071;-69
2022/05/17 08:59:47;;;;;;;0.65;0.52;;;23.40;61.60;;;;;;4193875;28;20143;-69
2022/05/17 09:02:12;;;;;;;0.00;0.00;;;23.40;61.60;;;;;;4205466;28;20139;-68
2022/05/17 09:05:03;;;;;;;0.00;0.00;;;23.40;61.50;;;;;;4203879;28;20110;-68
2022/05/17 09:07:27;;;;;;;0.45;0.45;;;23.50;61.50;;;;;;4189756;28;20534;-68
2022/05/17 09:09:59;;;;;;;0.25;0.25;;;23.50;61.40;;;;;;4198994;28;20050;-68
2022/05/17 09:12:27;;;;;;;0.00;0.00;;;23.50;61.30;;;;;;4194825;28;20047;-68
2022/05/17 09:14:52;;;;;;;0.10;0.10;;;23.50;61.30;;;;;;4189774;28;20068;-68
2022/05/17 09:17:16;;;;;;;0.35;0.35;;;23.60;61.20;;;;;;4191774;28;20049;-68
2022/05/17 09:19:39;;;;;;;0.00;0.00;;;23.60;61.10;;;;;;4201653;28;20048;-68
2022/05/17 09:22:03;;;;;;;1.15;0.98;;;23.60;61.10;;;;;;4191966;28;20545;-65
2022/05/17 09:24:30;;;;;;;0.25;0.25;;;23.60;60.90;;;;;;4201425;28;20109;-65
2022/05/17 09:27:01;;;;;;;1.40;1.30;;;23.60;60.80;;;;;;4198287;28;20048;-66
2022/05/17 09:29:29;;;;;;;0.00;0.00;;;23.60;60.80;;;;;;4191385;28;20118;-66
2022/05/17 09:31:53;;;;;;;0.00;0.00;;;23.70;61.60;;;;;;4189164;28;20074;-66
2022/05/17 09:34:27;;;;;;;0.45;0.45;;;23.70;60.60;;;;;;4187902;28;20049;-66
2022/05/17 09:36:52;;;;;;;0.00;0.00;;;23.70;60.40;;;;;;4189282;28;20113;-66
2022/05/17 09:39:20;;;;;;;0.13;0.13;;;23.70;60.30;;;;;;4203951;28;20044;-66
2022/05/17 09:41:42;;;;;;;0.10;0.10;;;23.70;60.30;;;;;;4210764;28;20048;-66
2022/05/17 09:44:27;;;;;;;0.05;0.05;;;23.70;60.30;;;;;;4194478;28;20549;-66
2022/05/17 09:46:51;;;;;;;0.00;0.00;;;23.70;60.30;;;;;;4192894;28;20127;-66
2022/05/17 09:54:54;;;;;;;0.00;0.00;;;23.70;60.20;;;;;;4207565;27;20094;-66
2022/05/17 09:57:19;;;;;;;0.00;0.00;;;23.70;60.10;;;;;;4228149;28;20200;-67
2022/05/17 09:59:41;;;;;;;0.00;0.00;;;23.80;60.10;;;;;;4227881;27;20044;-66
2022/05/17 10:02:04;;;;;;;0.00;0.00;;;23.80;59.90;;;;;;4227247;27;20075;-67
2022/05/17 10:04:26;;;;;;;0.00;0.00;;;23.80;59.90;;;;;;4227755;27;20044;-67
2022/05/17 10:06:55;;;;;;;0.00;0.00;;;23.80;59.80;;;;;;4226595;28;20516;-66
2022/05/17 10:09:29;;;;;;;1.45;1.45;;;23.80;59.90;;;;;;4227456;27;20516;-66
2022/05/17 10:11:57;;;;;;;0.05;0.05;;;23.80;59.80;;;;;;4225110;27;20145;-65
2022/05/17 10:14:30;;;;;;;0.00;0.00;;;23.80;59.80;;;;;;4194031;28;20114;-66
2022/05/17 10:16:58;;;;;;;1.55;0.85;;;23.80;59.60;;;;;;4192295;28;20048;-66
2022/05/17 10:19:33;;;;;;;0.10;0.10;;;23.80;59.70;;;;;;4194170;28;20074;-65
2022/05/17 10:21:58;;;;;;;0.10;0.10;;;23.80;59.70;;;;;;4193944;28;20079;-66
2022/05/17 10:24:32;;;;;;;0.00;0.00;;;23.80;59.80;;;;;;4191082;28;20138;-66
2022/05/17 10:27:02;;;;;;;0.00;0.00;;;23.80;59.70;;;;;;4193821;28;20139;-66
2022/05/17 10:29:32;;;;;;;0.00;0.00;;;23.80;59.70;;;;;;4193759;28;20080;-66
2022/05/17 10:32:01;;;;;;;0.10;0.10;;;23.80;59.80;;;;;;4223793;27;20061;-65
2022/05/17 10:34:48;;;;;;;0.00;0.00;;;23.80;59.70;;;;;;4225726;28;20043;-65
2022/05/17 10:37:14;;;;;;;0.00;0.00;;;23.80;59.70;;;;;;4227296;27;20044;-65
2022/05/17 10:39:41;;;;;;;0.00;0.00;;;23.80;59.60;;;;;;4227402;27;20056;-65
2022/05/17 10:42:05;;;;;;;0.17;0.17;;;23.90;59.60;;;;;;4224048;28;20055;-65
2022/05/17 10:44:39;;;;;;;0.08;0.08;;;23.90;59.30;;;;;;4227441;28;20079;-65
2022/05/17 10:47:12;;;;;;;0.00;0.00;;;23.90;59.30;;;;;;4226907;28;20051;-65
2022/05/17 10:49:42;;;;;;;0.00;0.00;;;24.00;59.20;;;;;;4227230;27;20043;-65
2022/05/17 10:52:10;;;;;;;0.00;0.00;;;24.00;59.10;;;;;;4223902;28;20100;-65
2022/05/17 10:54:45;;;;;;;0.10;0.10;;;24.00;58.90;;;;;;4193464;28;20063;-65
2022/05/17 10:57:18;;;;;;;1.08;0.47;;;24.00;59.00;;;;;;4193565;28;20062;-64
2022/05/17 10:59:46;;;;;;;1.13;1.02;;;24.10;58.90;;;;;;4207908;28;20055;-64
2022/05/17 11:02:25;;;;;;;0.00;0.00;;;24.10;58.50;;;;;;4209527;28;20059;-65
2022/05/17 11:05:07;;;;;;;0.10;0.10;;;24.10;58.60;;;;;;4225915;28;20044;-64
2022/05/17 11:07:42;;;;;;;0.00;0.00;;;24.10;58.60;;;;;;4224645;28;20055;-66
2022/05/17 11:10:15;;;;;;;0.10;0.10;;;24.10;58.50;;;;;;4226587;28;20051;-66
2022/05/17 11:12:44;;;;;;;0.00;0.00;;;24.10;58.60;;;;;;4224769;27;20043;-65
2022/05/17 11:15:11;;;;;;;0.00;0.00;;;24.10;58.60;;;;;;4226467;28;20482;-68
2022/05/17 11:17:41;;;;;;;0.60;0.60;;;24.10;58.50;;;;;;4227156;27;20497;-68
2022/05/17 11:20:09;;;;;;;0.00;0.00;;;24.10;58.50;;;;;;4226747;28;20046;-68
2022/05/17 11:22:38;;;;;;;0.00;0.00;;;24.20;58.40;;;;;;4220227;28;20125;-68
2022/05/17 11:25:36;;;;;;;0.00;0.00;;;24.20;58.40;;;;;;4210833;28;20056;-68
2022/05/17 11:28:33;;;;;;;1.02;1.00;;;24.20;58.30;;;;;;4218747;27;20116;-68
2022/05/17 11:31:00;;;;;;;0.00;0.00;;;24.30;58.30;;;;;;4225936;27;20500;-68
2022/05/17 11:33:38;;;;;;;0.00;0.00;;;24.30;58.90;;;;;;4226214;28;20058;-68
2022/05/17 11:36:03;;;;;;;0.00;0.00;;;24.30;58.00;;;;;;4226110;27;20132;-67
2022/05/17 11:38:55;;;;;;;0.00;0.00;;;24.40;58.00;;;;;;4226496;27;20047;-68
2022/05/17 11:41:21;;;;;;;0.00;0.00;;;24.40;57.80;;;;;;4174170;28;20098;-68
2022/05/17 11:43:48;;;;;;;0.00;0.00;;;24.40;57.70;;;;;;4217771;27;20130;-67
2022/05/17 11:46:42;;;;;;;0.13;0.13;;;24.40;57.60;;;;;;4226124;27;20079;-66
2022/05/17 11:49:25;;;;;;;0.00;0.00;;;24.50;57.50;;;;;;4226191;28;20047;-68
2022/05/17 11:52:21;;;;;;;0.00;0.00;;;24.50;57.30;;;;;;4213439;28;20040;-68
2022/05/17 11:54:45;;;;;;;0.00;0.00;;;24.60;57.20;;;;;;4209165;28;20054;-68
2022/05/17 11:57:09;;;;;;;0.00;0.00;;;24.60;56.90;;;;;;4209692;28;20047;-68
2022/05/17 11:59:53;;;;;;;0.00;0.00;;;24.60;56.90;;;;;;4209400;28;20048;-68
2022/05/17 12:02:15;;;;;;;0.10;0.10;;;24.60;56.80;;;;;;4208761;28;20044;-68
2022/05/17 12:04:42;;;;;;;0.20;0.20;;;24.60;56.60;;;;;;4208939;28;20048;-67
2022/05/17 12:07:23;;;;;;;0.00;0.00;;;24.70;56.50;;;;;;4207572;28;20043;-67
2022/05/17 12:09:49;;;;;;;0.00;0.00;;;24.70;56.40;;;;;;4207673;28;20097;-68
2022/05/17 12:12:36;;;;;;;0.00;0.00;;;24.70;56.40;;;;;;4209258;28;20044;-69
2022/05/17 12:15:16;;;;;;;0.00;0.00;;;24.70;56.40;;;;;;4192031;28;20067;-70
2022/05/17 12:17:47;;;;;;;0.20;0.20;;;24.70;56.40;;;;;;4192581;28;20056;-67
2022/05/17 12:20:18;;;;;;;0.00;0.00;;;24.70;56.10;;;;;;4191978;28;20041;-68
2022/05/17 12:22:46;;;;;;;0.00;0.00;;;24.70;56.20;;;;;;4199272;28;20437;-68
2022/05/17 12:25:15;;;;;;;0.00;0.00;;;24.70;56.90;;;;;;4208117;28;20051;-69
2022/05/17 12:27:41;;;;;;;0.00;0.00;;;24.70;56.00;;;;;;4208334;28;20051;-68
2022/05/17 12:32:52;;;;;;;0.28;0.28;;;24.80;56.00;;;;;;4209330;28;20101;-68
2022/05/17 12:35:22;;;;;;;0.00;0.00;;;24.80;55.90;;;;;;4207205;28;20050;-64
2022/05/17 12:37:45;;;;;;;0.00;0.00;;;24.80;55.80;;;;;;4209800;28;20060;-66
2022/05/17 12:43:06;;;;;;;0.00;0.00;;;24.90;55.60;;;;;;4208838;28;20054;-67
2022/05/17 12:45:31;;;;;;;0.00;0.00;;;24.90;55.40;;;;;;4208716;28;20128;-69
2022/05/17 12:47:56;;;;;;;0.00;0.00;;;24.90;54.90;;;;;;4213438;28;20047;-69
2022/05/17 12:50:22;;;;;;;0.32;0.32;;;24.90;54.80;;;;;;4225976;28;20052;-68
2022/05/17 12:52:46;;;;;;;0.00;0.00;;;25.00;54.60;;;;;;4217448;28;20101;-68
2022/05/17 12:55:13;;;;;;;0.55;0.55;;;25.00;54.50;;;;;;4208614;28;20132;-67
2022/05/17 12:57:38;;;;;;;0.00;0.00;;;25.00;54.40;;;;;;4209053;28;20133;-67
2022/05/17 13:00:11;;;;;;;1.40;0.75;;;25.00;54.30;;;;;;4208315;28;20423;-67